createdAt,value
2022-12-01T00:01:17.571Z,85806.50
2022-12-01T00:03:44.595Z,85774.19
2022-12-01T00:06:17.980Z,85800.38
2022-12-01T00:09:04.954Z,85803.88
2022-12-01T00:11:32.464Z,85802.47
2022-12-01T00:14:01.560Z,85806.59
2022-12-01T00:16:29.071Z,85810.72
2022-12-01T00:18:56.518Z,85785.28
2022-12-01T00:21:25.388Z,85748.78
2022-12-01T00:23:55.152Z,85801.78
2022-12-01T00:26:23.578Z,85801.78
2022-12-01T00:28:55.524Z,85758.47
2022-12-01T00:31:22.906Z,85785.25
2022-12-01T00:33:50.134Z,85773.53
2022-12-01T00:36:17.176Z,85748.06
2022-12-01T00:38:44.248Z,85782.53
2022-12-01T00:41:11.378Z,85776.28
2022-12-01T00:43:38.480Z,85747.34
2022-12-01T00:46:05.660Z,85752.84
2022-12-01T00:48:32.753Z,85759.69
2022-12-01T00:50:59.687Z,85775.41
2022-12-01T00:53:26.632Z,85780.88
2022-12-01T00:55:54.231Z,85787.06
2022-12-01T00:58:21.933Z,85742.38
2022-12-01T01:00:58.158Z,85723.72
2022-12-01T01:03:26.305Z,85751.28
2022-12-01T01:05:53.765Z,85774.72
2022-12-01T01:08:21.237Z,85747.16
2022-12-01T01:10:49.112Z,85725.13
2022-12-01T01:13:16.605Z,85729.97
2022-12-01T01:15:43.604Z,85707.91
2022-12-01T01:18:12.358Z,85758.88
2022-12-01T01:20:39.411Z,85736.84
2022-12-01T01:23:06.510Z,85698.94
2022-12-01T01:25:33.811Z,85751.28
2022-12-01T01:28:00.910Z,85743.03
2022-12-01T01:30:28.039Z,85744.50
2022-12-01T01:32:55.341Z,85677.69
2022-12-01T01:35:22.616Z,85700.44
2022-12-01T01:37:51.063Z,85725.19
2022-12-01T01:40:18.806Z,85725.19
2022-12-01T01:42:45.828Z,85700.38
2022-12-01T01:45:26.143Z,85741.66
2022-12-01T01:47:55.055Z,85705.22
2022-12-01T01:50:27.104Z,85724.50
2022-12-01T01:53:03.381Z,85718.88
2022-12-01T01:55:34.005Z,85726.50
2022-12-01T01:58:02.786Z,85725.19
2022-12-01T02:00:29.713Z,85689.97
2022-12-01T02:03:00.449Z,85721.03
2022-12-01T02:05:32.545Z,85692.06
2022-12-01T02:08:01.925Z,85723.78
2022-12-01T02:10:50.765Z,85729.28
2022-12-01T02:13:46.928Z,85727.88
2022-12-01T02:16:54.911Z,85716.97
2022-12-01T02:19:37.025Z,85725.81
2022-12-01T02:22:22.432Z,85717.59
2022-12-01T02:24:52.155Z,85720.38
2022-12-01T02:27:37.273Z,85711.47
2022-12-01T02:30:08.766Z,85725.91
2022-12-01T02:33:14.515Z,85710.03
2022-12-01T02:36:42.980Z,85716.84
2022-12-01T02:39:30.779Z,85719.66
2022-12-01T02:42:39.961Z,85716.88
2022-12-01T02:45:13.754Z,85714.22
2022-12-01T02:47:42.317Z,85687.34
2022-12-01T02:50:11.566Z,85710.13
2022-12-01T02:52:40.605Z,85713.53
2022-12-01T02:55:07.895Z,85715.63
2022-12-01T02:57:34.985Z,85675.78
2022-12-01T03:00:02.725Z,85677.19
2022-12-01T03:02:42.249Z,85696.44
2022-12-01T03:05:29.237Z,85690.91
2022-12-01T03:08:20.919Z,85701.84
2022-12-01T03:10:57.983Z,85688.22
2022-12-01T03:13:55.429Z,85695.13
2022-12-01T03:16:38.857Z,85703.34
2022-12-01T03:19:36.197Z,85686.84
2022-12-01T03:22:14.671Z,85693.78
2022-12-01T03:24:46.701Z,85680.72
2022-12-01T03:27:16.822Z,85658.06
2022-12-01T03:29:47.246Z,85646.47
2022-12-01T03:32:18.527Z,85661.53
2022-12-01T03:34:58.513Z,85680.78
2022-12-01T03:37:32.729Z,85700.78
2022-12-01T03:40:02.387Z,85443.06
2022-12-01T03:42:37.476Z,85681.56
2022-12-01T03:45:09.617Z,85694.59
2022-12-01T03:47:37.965Z,85709.75
2022-12-01T03:50:08.248Z,85652.78
2022-12-01T03:52:53.821Z,85707.75
2022-12-01T03:55:24.135Z,85706.31
2022-12-01T03:58:00.187Z,85705.69
2022-12-01T04:00:31.508Z,85679.41
2022-12-01T04:03:02.262Z,85647.13
2022-12-01T04:05:30.045Z,85670.56
2022-12-01T04:07:57.243Z,85666.47
2022-12-01T04:10:24.556Z,85705.66
2022-12-01T04:12:58.803Z,85668.59
2022-12-01T04:15:26.718Z,85702.22
2022-12-01T04:17:54.525Z,85702.25
2022-12-01T04:20:21.996Z,85656.66
2022-12-01T04:22:49.007Z,85696.69
2022-12-01T04:25:16.124Z,85663.69
2022-12-01T04:27:43.003Z,85643.13
2022-12-01T04:30:11.155Z,85682.31
2022-12-01T04:32:43.289Z,85696.75
2022-12-01T04:35:11.785Z,85696.69
2022-12-01T04:37:39.512Z,85674.78
2022-12-01T04:40:07.170Z,85710.47
2022-12-01T04:42:34.588Z,85654.16
2022-12-01T04:45:01.739Z,85673.38
2022-12-01T04:47:28.815Z,85617.72
2022-12-01T04:49:55.890Z,85705.03
2022-12-01T04:52:22.997Z,85658.97
2022-12-01T04:54:49.957Z,85634.91
2022-12-01T04:57:17.042Z,85707.09
2022-12-01T04:59:43.902Z,85703.69
2022-12-01T05:02:10.956Z,85696.13
2022-12-01T05:04:41.500Z,85709.16
2022-12-01T05:07:08.719Z,85636.31
2022-12-01T05:09:35.867Z,85709.88
2022-12-01T05:12:02.994Z,85680.28
2022-12-01T05:14:30.050Z,85705.72
2022-12-01T05:16:58.279Z,85688.53
2022-12-01T05:19:43.916Z,85705.75
2022-12-01T05:22:10.860Z,85707.13
2022-12-01T05:24:37.865Z,85672.72
2022-12-01T05:27:04.796Z,85643.84
2022-12-01T05:29:33.218Z,85695.41
2022-12-01T05:32:00.305Z,85709.84
2022-12-01T05:34:27.307Z,85700.91
2022-12-01T05:36:54.370Z,85703.69
2022-12-01T05:39:21.341Z,85707.09
2022-12-01T05:41:48.276Z,85680.25
2022-12-01T05:44:15.208Z,85710.53
2022-12-01T05:46:42.190Z,85672.03
2022-12-01T05:49:09.165Z,85711.91
2022-12-01T05:51:36.074Z,85660.38
2022-12-01T05:54:03.272Z,85705.66
2022-12-01T05:56:30.222Z,85710.50
2022-12-01T05:58:57.267Z,85695.38
2022-12-01T06:01:24.236Z,85711.91
2022-12-01T06:03:53.178Z,85718.75
2022-12-01T06:06:20.337Z,85692.63
2022-12-01T06:08:47.325Z,85704.97
2022-12-01T06:11:14.345Z,85720.78
2022-12-01T06:13:41.189Z,85707.75
2022-12-01T06:16:08.469Z,85696.75
2022-12-01T06:18:37.556Z,85712.59
2022-12-01T06:21:06.584Z,85706.41
2022-12-01T06:23:33.779Z,85678.91
2022-12-01T06:26:00.821Z,85694.03
2022-12-01T06:28:27.756Z,85702.25
2022-12-01T06:30:59.482Z,85716.03
2022-12-01T06:33:31.758Z,85727.00
2022-12-01T06:36:04.866Z,85725.63
2022-12-01T06:38:36.213Z,85713.94
2022-12-01T06:41:04.758Z,85714.63
2022-12-01T06:43:32.208Z,85683.03
2022-12-01T06:46:02.122Z,85718.78
2022-12-01T06:48:30.211Z,85681.63
2022-12-01T06:50:58.826Z,85717.38
2022-12-01T06:53:27.580Z,85703.59
2022-12-01T06:55:59.315Z,85724.25
2022-12-01T06:58:26.460Z,85689.88
2022-12-01T07:00:53.674Z,85733.84
2022-12-01T07:03:20.800Z,85674.03
2022-12-01T07:05:58.940Z,85728.38
2022-12-01T07:08:30.542Z,85693.97
2022-12-01T07:11:04.925Z,85724.22
2022-12-01T07:13:33.901Z,85707.03
2022-12-01T07:16:03.441Z,85718.72
2022-12-01T07:18:31.561Z,85711.16
2022-12-01T07:21:03.058Z,85709.09
2022-12-01T07:23:30.678Z,85722.84
2022-12-01T07:26:07.233Z,85726.28
2022-12-01T07:28:34.338Z,85681.56
2022-12-01T07:31:06.519Z,85670.56
2022-12-01T07:33:33.756Z,85686.44
2022-12-01T07:36:01.071Z,85722.19
2022-12-01T07:38:29.781Z,85702.22
2022-12-01T07:41:04.819Z,85730.38
2022-12-01T07:43:32.805Z,85720.69
2022-12-01T07:46:07.666Z,85728.25
2022-12-01T07:48:37.248Z,85729.66
2022-12-01T07:51:05.416Z,85722.13
2022-12-01T07:53:32.958Z,85701.47
2022-12-01T07:56:07.044Z,85688.44
2022-12-01T07:58:35.764Z,85734.50
2022-12-01T08:01:08.262Z,85733.81
2022-12-01T08:03:36.053Z,85717.28
2022-12-01T08:06:04.337Z,85735.22
2022-12-01T08:08:36.576Z,85744.81
2022-12-01T08:11:06.673Z,85742.78
2022-12-01T08:13:34.217Z,85734.56
2022-12-01T08:16:05.886Z,85729.75
2022-12-01T08:18:40.491Z,85692.53
2022-12-01T08:21:09.587Z,85735.13
2022-12-01T08:23:36.657Z,85742.06
2022-12-01T08:26:05.385Z,85731.06
2022-12-01T08:28:32.669Z,85689.72
2022-12-01T08:31:02.639Z,85722.13
2022-12-01T08:33:29.640Z,85721.44
2022-12-01T08:35:56.544Z,85728.31
2022-12-01T08:38:23.524Z,85689.81
2022-12-01T08:40:50.571Z,85680.25
2022-12-01T08:43:34.676Z,85674.75
2022-12-01T08:46:04.751Z,85683.66
2022-12-01T08:48:31.771Z,85672.00
2022-12-01T08:51:08.235Z,85696.75
2022-12-01T08:53:42.566Z,85720.78
2022-12-01T08:56:19.008Z,85721.47
2022-12-01T08:58:46.026Z,85708.44
2022-12-01T09:01:15.702Z,85685.03
2022-12-01T09:03:43.887Z,85709.84
2022-12-01T09:06:17.112Z,85695.41
2022-12-01T09:08:44.915Z,85710.50
2022-12-01T09:11:14.509Z,85707.75
2022-12-01T09:13:42.882Z,85707.75
2022-12-01T09:16:18.198Z,85678.88
2022-12-01T09:18:46.771Z,85661.00
2022-12-01T09:21:18.680Z,85713.28
2022-12-01T09:23:46.140Z,85711.91
2022-12-01T09:26:18.254Z,85678.91
2022-12-01T09:28:49.921Z,85668.59
2022-12-01T09:31:18.635Z,85668.56
2022-12-01T09:33:45.810Z,85634.91
2022-12-01T09:36:13.157Z,85683.03
2022-12-01T09:38:40.369Z,85697.44
2022-12-01T09:41:24.462Z,85706.44
2022-12-01T09:44:17.353Z,85664.50
2022-12-01T09:46:53.524Z,85709.16
2022-12-01T09:50:05.005Z,85711.91
2022-12-01T09:52:54.484Z,85699.56
2022-12-01T09:55:24.556Z,85698.88
2022-12-01T09:57:57.544Z,85689.28
2022-12-01T10:00:26.848Z,85703.03
2022-12-01T10:03:09.930Z,85691.34
2022-12-01T10:06:18.534Z,85681.00
2022-12-01T10:08:41.962Z,85674.88
2022-12-01T10:11:21.107Z,85671.47
2022-12-01T10:13:48.083Z,85677.59
2022-12-01T10:16:24.921Z,85660.38
2022-12-01T10:19:18.070Z,85665.22
2022-12-01T10:21:44.960Z,85674.84
2022-12-01T10:24:26.893Z,85673.47
2022-12-01T10:26:59.786Z,85680.38
2022-12-01T10:29:35.622Z,85680.34
2022-12-01T10:32:11.267Z,85681.72
2022-12-01T10:34:41.460Z,85676.91
2022-12-01T10:37:35.422Z,85674.88
2022-12-01T10:40:02.660Z,85653.56
2022-12-01T10:42:41.850Z,85674.19
2022-12-01T10:45:31.877Z,85674.88
2022-12-01T10:48:18.111Z,85679.03
2022-12-01T10:50:50.616Z,85634.38
2022-12-01T10:53:23.698Z,85670.78
2022-12-01T10:55:59.004Z,85623.41
2022-12-01T10:58:26.478Z,85593.16
2022-12-01T11:01:00.529Z,85621.34
2022-12-01T11:03:33.896Z,85658.41
2022-12-01T11:06:04.629Z,85650.19
2022-12-01T11:08:45.866Z,85637.13
2022-12-01T11:11:33.202Z,85651.53
2022-12-01T11:14:03.795Z,85657.06
2022-12-01T11:16:38.584Z,85660.50
2022-12-01T11:19:33.058Z,85648.81
2022-12-01T11:22:02.726Z,85651.56
2022-12-01T11:24:44.396Z,85639.91
2022-12-01T11:27:17.072Z,85589.75
2022-12-01T11:29:46.012Z,85652.25
2022-12-01T11:32:26.265Z,85652.94
2022-12-01T11:35:05.457Z,85648.81
2022-12-01T11:37:39.081Z,85651.59
2022-12-01T11:40:33.455Z,85630.94
2022-12-01T11:43:03.092Z,85654.34
2022-12-01T11:45:34.001Z,85621.34
2022-12-01T11:48:21.324Z,85659.81
2022-12-01T11:51:27.233Z,85659.78
2022-12-01T11:54:06.097Z,85657.06
2022-12-01T11:56:33.073Z,85613.09
2022-12-01T11:59:05.737Z,85657.06
2022-12-01T12:01:47.756Z,85654.97
2022-12-01T12:04:20.632Z,85657.03
2022-12-01T12:07:09.046Z,85658.44
2022-12-01T12:09:57.382Z,85629.56
2022-12-01T12:12:37.058Z,85654.31
2022-12-01T12:15:13.177Z,85656.38
2022-12-01T12:18:14.273Z,85659.81
2022-12-01T12:20:53.660Z,85650.16
2022-12-01T12:23:42.366Z,85661.16
2022-12-01T12:26:47.841Z,85652.94
2022-12-01T12:29:51.863Z,85654.97
2022-12-01T12:32:48.538Z,85607.59
2022-12-01T12:35:27.591Z,85650.19
2022-12-01T12:38:15.470Z,85655.66
2022-12-01T12:41:05.132Z,85665.28
2022-12-01T12:43:52.438Z,85665.28
2022-12-01T12:46:29.051Z,85663.91
2022-12-01T12:49:19.822Z,85661.16
2022-12-01T12:51:56.885Z,85659.81
2022-12-01T12:54:30.302Z,85652.22
2022-12-01T12:57:19.478Z,85618.50
2022-12-01T12:59:55.135Z,85657.00
2022-12-01T13:02:34.762Z,85619.91
2022-12-01T13:05:20.104Z,85659.78
2022-12-01T13:08:14.205Z,85621.31
2022-12-01T13:10:44.804Z,85619.91
2022-12-01T13:13:46.719Z,85652.91
2022-12-01T13:16:18.404Z,85658.41
2022-12-01T13:19:03.234Z,85626.81
2022-12-01T13:21:43.367Z,85646.72
2022-12-01T13:24:23.354Z,85642.56
2022-12-01T13:26:56.430Z,85668.00
2022-12-01T13:29:25.896Z,85631.63
2022-12-01T13:31:55.057Z,85662.50
2022-12-01T13:34:41.011Z,85668.00
2022-12-01T13:37:10.897Z,85652.88
2022-12-01T13:39:40.552Z,85668.69
2022-12-01T13:42:20.221Z,85670.75
2022-12-01T13:45:00.823Z,85672.81
2022-12-01T13:47:54.430Z,85654.94
2022-12-01T13:50:39.631Z,85673.50
2022-12-01T13:53:35.583Z,85674.19
2022-12-01T13:56:17.859Z,85679.00
2022-12-01T13:58:48.381Z,85672.13
2022-12-01T14:01:21.986Z,85676.22
2022-12-01T14:04:11.057Z,85678.94
2022-12-01T14:06:49.496Z,85636.34
2022-12-01T14:09:33.233Z,85670.72
2022-12-01T14:12:05.091Z,85677.59
2022-12-01T14:14:41.205Z,85639.09
2022-12-01T14:17:26.717Z,85677.56
2022-12-01T14:19:55.267Z,85670.03
2022-12-01T14:22:44.721Z,85676.22
2022-12-01T14:25:20.625Z,85672.09
2022-12-01T14:27:50.992Z,85672.09
2022-12-01T14:30:39.613Z,85678.97
2022-12-01T14:33:42.812Z,85677.56
2022-12-01T14:36:31.518Z,85675.53
2022-12-01T14:38:58.344Z,85677.59
2022-12-01T14:41:46.558Z,85680.31
2022-12-01T14:44:35.369Z,85680.31
2022-12-01T14:47:07.417Z,85684.44
2022-12-01T14:49:59.493Z,85676.91
2022-12-01T14:52:58.471Z,85679.66
2022-12-01T14:55:30.243Z,85680.31
2022-12-01T14:58:07.897Z,85615.72
2022-12-01T15:00:38.500Z,85637.03
2022-12-01T15:03:09.816Z,85681.69
2022-12-01T15:05:42.763Z,85685.81
2022-12-01T15:11:21.063Z,85687.19
2022-12-01T15:13:51.060Z,85689.25
2022-12-01T15:16:21.219Z,85682.38
2022-12-01T15:18:48.658Z,85679.66
2022-12-01T15:21:16.106Z,85697.50
2022-12-01T15:24:02.781Z,85694.06
2022-12-01T15:26:33.623Z,85699.56
2022-12-01T15:29:24.183Z,85681.00
2022-12-01T15:31:54.833Z,85706.41
2022-12-01T15:34:30.905Z,85677.53
2022-12-01T15:36:59.622Z,85672.00
2022-12-01T15:39:33.483Z,85626.69
2022-12-01T15:42:01.197Z,85707.09
2022-12-01T15:44:34.099Z,85629.44
2022-12-01T15:47:44.324Z,85667.88
2022-12-01T15:50:31.220Z,85696.75
2022-12-01T15:53:01.067Z,85674.75
2022-12-01T15:55:38.498Z,85692.63
2022-12-01T15:58:13.738Z,85698.78
2022-12-01T16:00:40.835Z,85713.94
2022-12-01T16:03:14.028Z,85677.50
2022-12-01T16:05:44.626Z,85699.50
2022-12-01T16:08:20.715Z,85691.91
2022-12-01T16:11:15.062Z,85709.13
2022-12-01T16:13:49.237Z,85713.94
2022-12-01T16:16:48.239Z,85715.97
2022-12-01T16:19:18.045Z,85723.53
2022-12-01T16:21:54.084Z,85722.16
2022-12-01T16:24:33.804Z,85718.72
2022-12-01T16:27:05.093Z,85722.84
2022-12-01T16:29:37.467Z,85704.97
2022-12-01T16:32:20.626Z,85726.97
2022-12-01T16:34:49.478Z,85632.72
2022-12-01T16:37:16.562Z,85699.44
2022-12-01T16:39:43.797Z,85658.19
2022-12-01T16:42:21.215Z,85692.53
2022-12-01T16:44:50.269Z,85709.72
2022-12-01T16:47:25.507Z,85724.19
2022-12-01T16:49:52.991Z,85723.50
2022-12-01T16:55:24.445Z,85729.69
2022-12-01T16:57:51.534Z,85721.41
2022-12-01T17:00:18.958Z,85684.25
2022-12-01T17:02:46.006Z,85744.06
2022-12-01T17:05:13.079Z,85695.25
2022-12-01T17:07:41.756Z,85709.69
2022-12-01T17:10:09.348Z,85724.72
2022-12-01T17:12:36.376Z,85743.38
2022-12-01T17:15:04.397Z,85753.66
2022-12-01T17:17:31.461Z,85753.66
2022-12-01T17:19:58.454Z,85713.03
2022-12-01T17:22:25.531Z,85770.09
2022-12-01T17:24:54.629Z,85768.06
2022-12-01T17:27:23.216Z,85738.47
2022-12-01T17:29:50.162Z,85768.06
2022-12-01T17:32:17.426Z,85770.19
2022-12-01T17:34:44.410Z,85734.38
2022-12-01T17:37:14.878Z,85735.06
2022-12-01T17:39:44.534Z,85769.47
2022-12-01T17:42:11.417Z,85774.94
2022-12-01T17:44:38.490Z,85744.66
2022-12-01T17:47:05.532Z,85773.56
2022-12-01T17:49:32.541Z,85745.38
2022-12-01T17:51:59.554Z,85763.94
2022-12-01T17:54:26.475Z,85751.53
2022-12-01T17:56:53.420Z,85719.94
2022-12-01T17:59:20.506Z,85754.31
2022-12-01T18:01:48.392Z,85717.13
2022-12-01T18:04:15.422Z,85770.78
2022-12-01T18:06:43.108Z,85752.88
2022-12-01T18:09:10.163Z,85726.72
2022-12-01T18:11:37.189Z,85776.31
2022-12-01T18:14:04.181Z,85675.09
2022-12-01T18:16:32.471Z,85777.00
2022-12-01T18:19:00.542Z,85774.88
2022-12-01T18:21:28.469Z,85780.44
2022-12-01T18:24:01.546Z,85781.78
2022-12-01T18:26:30.034Z,85777.63
2022-12-01T18:29:02.607Z,85754.22
2022-12-01T18:31:30.628Z,85779.03
2022-12-01T18:33:59.423Z,85762.56
2022-12-01T18:36:26.855Z,85769.41
2022-12-01T18:38:54.690Z,85723.31
2022-12-01T18:41:21.717Z,85783.16
2022-12-01T18:43:48.883Z,85780.38
2022-12-01T18:46:17.374Z,85756.28
2022-12-01T18:48:49.799Z,85768.03
2022-12-01T18:51:17.509Z,85769.34
2022-12-01T18:53:45.688Z,85746.66
2022-12-01T18:56:15.203Z,85776.22
2022-12-01T18:58:43.027Z,85755.59
2022-12-01T19:01:25.311Z,85744.56
2022-12-01T19:03:54.122Z,85775.38
2022-12-01T19:06:21.702Z,85789.94
2022-12-01T19:08:49.158Z,85796.78
2022-12-01T19:11:16.809Z,85778.22
2022-12-01T19:13:44.305Z,85792.69
2022-12-01T19:16:16.401Z,85802.31
2022-12-01T19:18:43.895Z,85796.81
2022-12-01T19:21:12.901Z,85799.56
2022-12-01T19:23:40.462Z,85795.47
2022-12-01T19:26:11.239Z,85781.66
2022-12-01T19:28:39.001Z,85791.28
2022-12-01T19:31:08.392Z,85798.22
2022-12-01T19:33:35.826Z,85765.81
2022-12-01T19:36:11.122Z,85804.34
2022-12-01T19:38:38.569Z,85795.47
2022-12-01T19:41:06.609Z,85791.97
2022-12-01T19:43:35.001Z,85801.63
2022-12-01T19:46:10.190Z,85802.31
2022-12-01T19:48:37.314Z,85762.41
2022-12-01T19:51:04.901Z,85799.56
2022-12-01T19:53:34.085Z,85748.63
2022-12-01T19:56:05.467Z,85785.88
2022-12-01T19:58:33.595Z,85756.25
2022-12-01T20:01:09.208Z,85787.91
2022-12-01T20:03:37.873Z,85795.47
2022-12-01T20:06:08.588Z,85795.47
2022-12-01T20:08:36.200Z,85771.34
2022-12-01T20:11:04.447Z,85796.84
2022-12-01T20:13:33.739Z,85797.50
2022-12-01T20:16:02.979Z,85772.00
2022-12-01T20:18:30.199Z,85794.78
2022-12-01T20:21:22.979Z,85798.19
2022-12-01T20:23:54.831Z,85800.97
2022-12-01T20:26:26.180Z,85786.50
2022-12-01T20:29:09.061Z,85773.38
2022-12-01T20:31:37.882Z,85810.53
2022-12-01T20:34:09.099Z,85787.13
2022-12-01T20:36:36.817Z,85733.44
2022-12-01T20:39:05.666Z,85817.41
2022-12-01T20:41:32.768Z,85753.34
2022-12-01T20:44:03.872Z,85796.69
2022-12-01T20:46:35.320Z,85821.53
2022-12-01T20:49:02.489Z,85816.00
2022-12-01T20:51:33.397Z,85796.72
2022-12-01T20:54:27.377Z,85822.19
2022-12-01T20:56:52.670Z,85796.66
2022-12-01T20:59:19.728Z,85810.44
2022-12-01T21:01:46.598Z,85801.53
2022-12-01T21:04:13.606Z,85779.41
2022-12-01T21:06:40.524Z,85817.38
2022-12-01T21:09:08.621Z,85806.31
2022-12-01T21:12:04.705Z,85787.03
2022-12-01T21:14:41.349Z,85839.31
2022-12-01T21:17:33.285Z,85837.25
2022-12-01T21:20:25.662Z,85840.69
2022-12-01T21:22:53.835Z,85837.16
2022-12-01T21:25:25.765Z,85851.63
2022-12-01T21:27:58.953Z,85815.13
2022-12-01T21:30:26.475Z,85851.63
2022-12-01T21:32:54.328Z,85813.06
2022-12-01T21:35:24.877Z,85847.53
2022-12-01T21:37:59.881Z,85818.59
2022-12-01T21:40:27.558Z,85854.38
2022-12-01T21:42:56.551Z,85854.41
2022-12-01T21:45:32.183Z,85853.00
2022-12-01T21:48:17.992Z,85818.50
2022-12-01T21:50:49.352Z,85807.38
2022-12-01T21:53:20.431Z,85826.75
2022-12-01T21:55:48.056Z,85822.63
2022-12-01T21:58:30.697Z,85855.72
2022-12-01T22:00:59.230Z,85840.44
2022-12-01T22:03:38.149Z,85828.13
2022-12-01T22:06:29.300Z,85836.34
2022-12-01T22:09:10.675Z,85863.91
2022-12-01T22:11:37.847Z,85790.25
2022-12-01T22:14:37.508Z,85861.91
2022-12-01T22:17:07.487Z,85865.31
2022-12-01T22:19:58.359Z,85858.44
2022-12-01T22:22:27.693Z,85821.84
2022-12-01T22:25:18.631Z,85866.66
2022-12-01T22:27:48.526Z,85786.72
2022-12-01T22:30:24.747Z,85852.91
2022-12-01T22:32:57.445Z,85851.56
2022-12-01T22:35:24.506Z,85857.09
2022-12-01T22:37:52.995Z,85829.56
2022-12-01T22:40:45.824Z,85823.34
2022-12-01T22:43:15.933Z,85853.00
2022-12-01T22:45:45.260Z,85861.25
2022-12-01T22:48:39.112Z,85857.81
2022-12-01T22:51:26.491Z,85855.75
2022-12-01T22:53:58.613Z,85746.91
2022-12-01T22:56:41.415Z,85818.56
2022-12-01T22:59:31.919Z,85850.97
2022-12-01T23:02:02.251Z,85850.94
2022-12-01T23:04:31.837Z,85829.59
2022-12-01T23:07:20.157Z,85843.34
2022-12-01T23:09:47.340Z,85853.00
2022-12-01T23:12:24.302Z,85820.66
2022-12-01T23:14:54.140Z,85845.47
2022-12-01T23:17:30.904Z,85847.53
2022-12-01T23:20:10.396Z,85812.44
2022-12-01T23:22:38.403Z,85846.16
2022-12-01T23:25:14.496Z,85802.06
2022-12-01T23:27:42.408Z,85848.94
2022-12-01T23:30:10.417Z,85820.69
2022-12-01T23:32:37.725Z,85810.97
2022-12-01T23:35:06.058Z,85820.00
2022-12-01T23:37:41.825Z,85846.19
2022-12-01T23:40:19.423Z,85819.94
2022-12-01T23:42:46.673Z,85807.56
2022-12-01T23:45:21.790Z,85851.66
2022-12-01T23:47:50.166Z,85814.41
2022-12-01T23:50:22.277Z,85806.19
2022-12-01T23:52:49.532Z,85844.75
2022-12-01T23:55:27.454Z,85823.41
2022-12-01T23:57:54.778Z,85853.06
